Parow, South Africa
Current Conditions -  °F | °C
As of 6:00 PM on Friday 26 Dec 2014 (Local Time) from FACT Reporting Station
Few Clouds Few Clouds  
Wind Chill: 70°   Ceiling: Unl
Heat Index: 70°   Visibility: 6mi
Dew Point: 52°   Wind: 28mph
Humidity: 53%   Direction: 170°S
Pressure: 29.85"   Gusts: NA
Location:  33.9°S, 18.6°E
Report Text: FACT 261600Z 17024KT 9999 FEW035 21/11 Q1011 NOSIG
Loading
Personal Weather Stations






























Interactive Weather Map New forecast layout! Learn more

10-Day Weather Forecast

Advertisements
Track Severe Weather on mobile